ADDS METAR Data INFO
IDs: Format: Raw Decoded Include TAF

Data at: 1319 UTC 25 Feb 2018

KIOW 251252Z AUTO 26013KT 10SM CLR M02/M06 A2989 RMK AO2 SLP127 T10171061
KIOW 251152Z AUTO 28011KT 10SM CLR M02/M06 A2986 RMK AO2 PK WND 29027/1105 SLP117 70021 T10171056 10011 21017 53029
KIOW 251052Z AUTO 27016G24KT 10SM CLR M01/M06 A2983 RMK AO2 PK WND 27035/1020 SLP108 T10111056
KIOW 251032Z AUTO 28024G32KT 10SM FEW028 M01/M06 A2981 RMK AO2 PK WND 27035/1020 T10061061
KIOW 250952Z AUTO 26019G30KT 10SM OVC026 01/M04 A2979 RMK AO2 PK WND 26030/0948 SLP093 T00061044
KIOW 250852Z AUTO 26015G25KT 10SM OVC021 01/M03 A2977 RMK AO2 SLP086 T00111028 53012
KIOW 250752Z AUTO 26016G21KT 10SM OVC025 01/M03 A2974 RMK AO2 SLP076 T00111028
KIOW 250702Z AUTO 26014KT 10SM BKN022 BKN029 OVC038 01/M03 A2974 RMK AO2 T00061033
KIOW 250652Z AUTO 26017G25KT 10SM SCT022 OVC038 01/M03 A2973 RMK AO2 SLP075 T00061033
KIOW 250650Z AUTO 26018G25KT 10SM FEW018 SCT024 OVC040 01/M03 A2973 RMK AO2
KIOW 250552Z AUTO 27024G32KT 10SM OVC019 01/M03 A2970 RMK AO2 PK WND 27032/0544 SLP064 60016 T00111028 10044 20011 400441028 53029
KIOW 250452Z AUTO 27019G29KT 10SM SCT013 OVC019 02/00 A2967 RMK AO2 PK WND 28029/0446 PRESRR SLP052 T00170000
KIOW 250352Z AUTO 28021G28KT 10SM OVC011 02/01 A2963 RMK AO2 PK WND 28028/0351 RAB00E15B22E23UPB15E22 SLP038 P0000 T00220006
KIOW 250317Z AUTO 26014G20KT 10SM UP FEW008 BKN012 OVC032 02/02 A2962 RMK AO2 RAB00E15UPB15 P0000 T00220017
KIOW 250314Z AUTO 27013KT 10SM -RA SCT010 OVC032 02/02 A2961 RMK AO2 RAB00 P0000 T00220017
KIOW 250305Z AUTO 27013G23KT 10SM -RA BKN011 BKN030 OVC055 03/02 A2961 RMK AO2 RAB00 P0000 T00280017
KIOW 250252Z AUTO 26014KT 10SM FEW011 SCT047 OVC055 03/02 A2962 RMK AO2 RAE52 PRESRR SLP034 P0005 60016 T00330022 53004
KIOW 250238Z AUTO 27012KT 10SM -RA FEW008 BKN045 OVC055 03/02 A2959 RMK AO2 P0005 T00330022
KIOW 250230Z AUTO 27011KT 7SM -RA SCT008 BKN026 OVC055 03/02 A2959 RMK AO2 P0005 T00330022
KIOW 250215Z AUTO 27010KT 6SM RA BR BKN008 BKN020 OVC029 04/02 A2961 RMK AO2 P0002 T00390022
KIOW 250201Z AUTO 26010KT 6SM -RA BR SCT006 OVC015 04/03 A2961 RMK AO2 P0000 T00390028
KIOW 250152Z AUTO 26010KT 3SM -RA BR FEW006 OVC013 04/03 A2961 RMK AO2 SLP031 P0007 T00390028
KIOW 250141Z AUTO 26010KT 4SM -RA BR FEW004 OVC010 04/03 A2961 RMK AO2 P0006 T00440028
KIOW 250125Z AUTO 26012KT 3SM -RA BR SCT004 OVC008 04/03 A2961 RMK AO2 PRESRR P0005 T00440033
KIOW 250106Z AUTO 19004KT 1 3/4SM -RA BR FEW002 OVC006 04/03 A2958 RMK AO2 P0003 T00440033
KIOW 250052Z AUTO 15004KT 2 1/2SM -RA BR OVC003 04/03 A2958 RMK AO2 RAB19 SLP020 P0004 T00440033
KIOW 250040Z AUTO 13004KT 2 1/2SM -RA BR OVC003 04/03 A2958 RMK AO2 RAB19 P0003 T00440033
KIOW 250022Z AUTO 13004KT 1 3/4SM -RA BR OVC002 04/03 A2959 RMK AO2 RAB19 P0001 T00440033
KIOW 250013Z AUTO 12003KT 2SM BR OVC003 04/03 A2959 RMK AO2 T00440033
KIOW 242352Z AUTO 11004KT 1 3/4SM BR OVC003 04/03 A2960 RMK AO2 SLP031 P0001 60004 I6000 T00440033 10044 20022 55035
KIOW 242349Z AUTO 11006KT 2SM BR OVC003 04/03 A2960 RMK AO2 P0001
KIOW 242336Z AUTO 11005KT 3SM BR OVC003 04/03 A2962 RMK AO2 P0001 T00440033
KIOW 242252Z AUTO 10007KT 1 1/2SM BR OVC003 04/03 A2965 RMK AO2 RAB03E29 SLP047 P0000 T00390028
KIOW 242152Z AUTO 12011KT 1 1/4SM BR OVC003 03/02 A2971 RMK AO2 SLP067 T00330022
KIOW 242143Z AUTO 11010G20KT 1 1/4SM BR OVC004 03/02 A2970 RMK AO2 T00330022
KIOW 242052Z AUTO 10010G18KT 2SM BR OVC004 03/02 A2972 RMK AO2 RAE18UPB1955E00 PRESFR SLP070 P0001 60003 I3000 T00330017 56072
KIOW 242008Z AUTO 11009KT 1 1/2SM -RA BR OVC004 03/02 A2979 RMK AO2 UPB1955E00 P0001 T00330017
KIOW 242000Z AUTO 11010KT 1 1/4SM -RA BR OVC005 03/02 A2979 RMK AO2 UPB1955E00 PRESFR P0000 T00280017
KIOW 241952Z AUTO 11009KT 1SM -RA BR OVC005 03/02 A2981 RMK AO2 RAB22 SLP101 P0002 T00280017
KIOW 241937Z AUTO 11012KT 1SM -RA BR OVC006 03/01 A2984 RMK AO2 RAB22 P0001 T00280011
KIOW 241926Z AUTO 11013G20KT 1 3/4SM -RA BR OVC006 03/01 A2985 RMK AO2 RAB22 P0000 T00280011
KIOW 241913Z AUTO 11009G17KT 3SM BR OVC006 03/01 A2985 RMK AO2 PRESRR T00280011
KIOW 241901Z AUTO 10009G20KT 3SM BR OVC005 03/01 A2983 RMK AO2 T00280011
KIOW 241852Z AUTO 10012G19KT 2 1/2SM BR OVC006 03/01 A2982 RMK AO2 RAE06UPB1758E24 SLP104 P0000 I1000 T00280011
KIOW 241752Z AUTO 09011G18KT 1 1/4SM -RA BR OVC009 02/01 A2994 RMK AO2 RAB42 CIG 005V011 PRESFR SLP144 P0000 60001 I1000 I6000 T00220006 10022 21011 58052
KIOW 241743Z AUTO 10012G18KT 1 3/4SM -RA BR OVC009 02/00 A2995 RMK AO2 RAB42 P0000 T00220000
KIOW 241652Z AUTO 10010KT 5SM HZ OVC009 02/M01 A2998 RMK AO2 RAE1553 SLP159 P0001 T00221006
KIOW 241623Z AUTO 09010KT 5SM HZ OVC009 02/M01 A3001 RMK AO2 RAE1553 PRESFR P0001 T00171011
KIOW 241552Z AUTO 10009KT 5SM -RA OVC010 01/M02 A3005 RMK AO2 UPB01E16RAB13SNE01 CIG 008V013 SLP183 P0000 T00111017
KIOW 241510Z AUTO 09010KT 6SM UP BKN014 OVC048 01/M02 A3008 RMK AO2 UPB01SNE01 P0000 T00111022
KIOW 241452Z AUTO 08010KT 4SM -SN FEW012 OVC048 01/M02 A3009 RMK AO2 UPB39E51SNE39B51 SLP198 P0000 60000 T00061022 56018
KIOW 241352Z AUTO 09007KT 4SM -SN SCT043 BKN060 OVC075 00/M03 A3011 RMK AO2 SNB48 SLP203 P0000 T00001033
KIOW 241252Z AUTO 09010KT 8SM OVC060 M01/M04 A3011 RMK AO2 UPB24E52 SLP203 P0000 T10061039
KIOW 241152Z AUTO 07008KT 8SM BKN065 OVC080 M01/M04 A3015 RMK AO2 SLP215 T10111044 11011 21028 58009
KIOW 241052Z AUTO 07006KT 8SM OVC070 M01/M05 A3016 RMK AO2 SLP221 T10111050
KIOW 240952Z AUTO 05008KT 8SM OVC075 M02/M05 A3017 RMK AO2 SLP223 T10171050
KIOW 240852Z AUTO 02010KT 7SM FEW100 M02/M06 A3017 RMK AO2 SLP224 T10221056 58040
KIOW 240752Z AUTO 36011KT 7SM CLR M02/M05 A3023 RMK AO2 SLP245 T10221050
KIOW 240652Z AUTO 36008KT 7SM CLR M02/M05 A3027 RMK AO2 SLP259 T10221050
KIOW 240552Z AUTO 34003KT 7SM CLR M02/M05 A3029 RMK AO2 SLP266 T10221050 10006 21033 400441033 58008
KIOW 240452Z AUTO 32004KT 7SM CLR M02/M05 A3030 RMK AO2 SLP269 T10221050
KIOW 240352Z AUTO 29004KT 7SM CLR M03/M05 A3032 RMK AO2 SLP273 T10281050
KIOW 240252Z AUTO 25003KT 9SM CLR M02/M04 A3032 RMK AO2 SLP274 T10221044 53010
KIOW 240152Z AUTO 28003KT 10SM CLR M01/M04 A3031 RMK AO2 SLP270 T10111044